createdAt,value
2022-12-18T00:00:19.063Z,15.48
2022-12-18T00:01:25.729Z,15.13
2022-12-18T00:02:28.102Z,14.80
2022-12-18T00:03:31.596Z,12.35
2022-12-18T00:04:34.955Z,16.88
2022-12-18T00:05:37.347Z,16.33
2022-12-18T00:06:40.779Z,15.55
2022-12-18T00:07:43.977Z,13.90
2022-12-18T00:08:47.793Z,13.70
2022-12-18T00:09:50.033Z,14.10
2022-12-18T00:10:53.433Z,17.13
2022-12-18T00:11:56.376Z,13.30
2022-12-18T00:13:00.724Z,16.43
2022-12-18T00:14:03.784Z,13.63
2022-12-18T00:15:07.784Z,13.13
2022-12-18T00:16:11.617Z,12.02
2022-12-18T00:17:16.614Z,12.05
2022-12-18T00:18:20.632Z,14.88
2022-12-18T00:19:24.415Z,13.18
2022-12-18T00:20:26.873Z,13.35
2022-12-18T00:21:31.735Z,13.82
2022-12-18T00:22:34.293Z,14.57
2022-12-18T00:23:40.023Z,11.77
2022-12-18T00:24:43.732Z,12.48
2022-12-18T00:25:45.960Z,11.95
2022-12-18T00:26:49.133Z,12.00
2022-12-18T00:27:51.383Z,17.45
2022-12-18T00:28:55.039Z,13.32
2022-12-18T00:29:57.259Z,12.10
2022-12-18T00:31:04.557Z,11.95
2022-12-18T00:32:06.814Z,13.88
2022-12-18T00:33:11.913Z,16.52
2022-12-18T00:34:14.797Z,15.07
2022-12-18T00:35:18.568Z,13.27
2022-12-18T00:36:23.256Z,13.25
2022-12-18T00:37:26.491Z,12.68
2022-12-18T00:38:28.910Z,14.57
2022-12-18T00:39:32.147Z,10.35
2022-12-18T00:40:34.587Z,13.75
2022-12-18T00:41:55.347Z,10.40
2022-12-18T00:42:57.570Z,10.27
2022-12-18T00:44:00.920Z,10.60
2022-12-18T00:45:07.635Z,9.67
2022-12-18T00:46:14.135Z,13.30
2022-12-18T00:47:16.503Z,11.75
2022-12-18T00:48:21.271Z,12.50
2022-12-18T00:49:23.731Z,12.00
2022-12-18T00:50:27.570Z,14.57
2022-12-18T00:51:29.854Z,11.68
2022-12-18T00:52:33.162Z,13.32
2022-12-18T00:53:35.710Z,11.10
2022-12-18T00:54:39.162Z,13.18
2022-12-18T00:55:42.143Z,12.03
2022-12-18T00:56:49.048Z,10.40
2022-12-18T00:57:53.105Z,11.50
2022-12-18T00:58:56.578Z,11.77
2022-12-18T00:59:59.900Z,12.13
2022-12-18T01:01:02.107Z,12.65
2022-12-18T01:02:05.504Z,11.18
2022-12-18T01:03:07.777Z,11.48
2022-12-18T01:04:12.800Z,11.60
2022-12-18T01:05:15.771Z,10.02
2022-12-18T01:06:19.484Z,11.30
2022-12-18T01:07:21.699Z,11.23
2022-12-18T01:08:25.245Z,13.23
2022-12-18T01:09:27.545Z,13.45
2022-12-18T01:10:30.981Z,12.73
2022-12-18T01:11:33.365Z,11.05
2022-12-18T01:12:36.770Z,12.07
2022-12-18T01:13:39.530Z,11.07
2022-12-18T01:14:43.032Z,12.50
2022-12-18T01:15:49.670Z,12.82
2022-12-18T01:16:53.104Z,11.13
2022-12-18T01:17:55.393Z,13.23
2022-12-18T01:18:58.804Z,11.25
2022-12-18T01:20:02.586Z,11.40
2022-12-18T01:21:09.317Z,9.98
2022-12-18T01:22:11.524Z,10.55
2022-12-18T01:23:14.934Z,12.85
2022-12-18T01:24:17.175Z,10.55
2022-12-18T01:25:20.515Z,12.00
2022-12-18T01:26:23.403Z,11.13
2022-12-18T01:27:26.652Z,12.10
2022-12-18T01:28:28.992Z,12.88
2022-12-18T01:29:32.439Z,11.05
2022-12-18T01:30:34.831Z,13.68
2022-12-18T01:31:38.255Z,9.75
2022-12-18T01:32:41.142Z,10.68
2022-12-18T01:33:44.452Z,11.35
2022-12-18T01:34:46.891Z,11.15
2022-12-18T01:35:51.651Z,8.43
2022-12-18T01:36:53.974Z,10.57
2022-12-18T01:37:57.498Z,9.63
2022-12-18T01:39:01.484Z,10.43
2022-12-18T01:40:05.279Z,10.30
2022-12-18T01:41:08.254Z,11.82
2022-12-18T01:42:14.246Z,11.18
2022-12-18T01:43:16.479Z,11.32
2022-12-18T01:45:02.487Z,11.23
2022-12-18T01:46:04.880Z,11.85
2022-12-18T01:47:08.182Z,11.50
2022-12-18T01:48:10.884Z,11.15
2022-12-18T01:49:14.245Z,9.20
2022-12-18T01:50:20.600Z,11.27
2022-12-18T01:51:25.777Z,10.43
2022-12-18T01:52:32.069Z,11.57
2022-12-18T01:53:35.745Z,10.45
2022-12-18T01:54:38.124Z,11.27
2022-12-18T01:55:47.805Z,11.32
2022-12-18T01:56:50.139Z,10.45
2022-12-18T01:57:56.192Z,8.85
2022-12-18T01:59:03.495Z,10.20
2022-12-18T02:00:10.343Z,11.40
2022-12-18T02:01:12.957Z,11.23
2022-12-18T02:02:18.149Z,10.02
2022-12-18T02:03:20.575Z,13.60
2022-12-18T02:04:25.155Z,10.07
2022-12-18T02:05:43.156Z,12.43
2022-12-18T02:06:49.433Z,10.35
2022-12-18T02:08:04.659Z,11.98
2022-12-18T02:09:15.220Z,11.77
2022-12-18T02:10:26.185Z,12.50
2022-12-18T02:11:40.939Z,14.83
2022-12-18T02:12:48.701Z,8.23
2022-12-18T02:14:01.507Z,10.63
2022-12-18T02:15:12.119Z,9.63
2022-12-18T02:16:22.475Z,9.52
2022-12-18T02:17:34.729Z,11.50
2022-12-18T02:18:41.021Z,12.02
2022-12-18T02:19:59.706Z,7.97
2022-12-18T02:21:10.608Z,13.10
2022-12-18T02:22:26.560Z,11.57
2022-12-18T02:23:42.775Z,10.40
2022-12-18T02:25:01.119Z,10.07
2022-12-18T02:26:11.223Z,9.25
2022-12-18T02:27:15.583Z,12.38
2022-12-18T02:28:21.183Z,7.97
2022-12-18T02:29:29.503Z,7.72
2022-12-18T02:30:35.070Z,7.13
2022-12-18T02:31:44.686Z,8.02
2022-12-18T02:32:52.268Z,11.10
2022-12-18T02:33:58.672Z,10.02
2022-12-18T02:35:03.360Z,7.77
2022-12-18T02:36:08.658Z,9.35
2022-12-18T02:37:15.014Z,8.63
2022-12-18T02:38:20.241Z,8.00
2022-12-18T02:39:25.171Z,8.45
2022-12-18T02:40:30.885Z,8.25
2022-12-18T02:41:37.242Z,8.80
2022-12-18T02:42:40.773Z,6.95
2022-12-18T02:43:48.797Z,8.90
2022-12-18T02:44:53.875Z,6.90
2022-12-18T02:45:58.481Z,6.53
2022-12-18T02:47:01.967Z,6.78
2022-12-18T02:48:04.685Z,7.82
2022-12-18T02:49:19.954Z,7.75
2022-12-18T02:50:32.339Z,8.13
2022-12-18T02:51:42.905Z,6.50
2022-12-18T02:52:57.358Z,7.13
2022-12-18T02:54:07.833Z,7.38
2022-12-18T02:55:22.360Z,7.13
2022-12-18T02:56:31.733Z,6.90
2022-12-18T02:57:45.273Z,7.60
2022-12-18T02:58:54.687Z,7.10
2022-12-18T03:00:03.853Z,6.57
2022-12-18T03:01:15.229Z,8.93
2022-12-18T03:02:26.459Z,7.75
2022-12-18T03:03:33.886Z,7.97
2022-12-18T03:04:42.628Z,7.45
2022-12-18T03:05:52.187Z,8.40
2022-12-18T03:06:58.536Z,8.90
2022-12-18T03:08:04.748Z,5.97
2022-12-18T03:09:14.356Z,6.93
2022-12-18T03:10:25.297Z,6.88
2022-12-18T03:11:51.103Z,7.55
2022-12-18T03:13:02.443Z,8.43
2022-12-18T03:14:08.155Z,7.43
2022-12-18T03:15:17.766Z,6.35
2022-12-18T03:16:25.581Z,7.97
2022-12-18T03:17:32.644Z,6.25
2022-12-18T03:18:39.657Z,5.05
2022-12-18T03:19:45.266Z,5.95
2022-12-18T03:20:51.373Z,4.63
2022-12-18T03:21:57.972Z,6.47
2022-12-18T03:23:08.903Z,5.30
2022-12-18T03:24:13.435Z,4.82
2022-12-18T03:25:18.817Z,4.50
2022-12-18T03:26:25.697Z,4.80
2022-12-18T03:27:30.416Z,6.93
2022-12-18T03:28:40.711Z,6.03
2022-12-18T03:29:48.797Z,4.80
2022-12-18T03:30:57.852Z,5.45
2022-12-18T03:32:05.806Z,4.77
2022-12-18T03:33:13.250Z,8.48
2022-12-18T03:34:18.401Z,5.88
2022-12-18T03:35:25.120Z,5.82
2022-12-18T03:36:28.537Z,5.88
2022-12-18T03:37:33.492Z,5.22
2022-12-18T03:38:35.984Z,6.13
2022-12-18T03:39:39.848Z,4.93
2022-12-18T03:40:54.258Z,6.30
2022-12-18T03:42:07.268Z,6.90
2022-12-18T03:43:14.644Z,6.07
2022-12-18T03:44:30.386Z,4.60
2022-12-18T03:45:37.375Z,4.20
2022-12-18T03:46:49.295Z,3.88
2022-12-18T03:48:01.247Z,5.22
2022-12-18T03:49:12.323Z,6.57
2022-12-18T03:50:21.056Z,4.20
2022-12-18T03:51:30.671Z,6.13
2022-12-18T03:52:39.594Z,4.95
2022-12-18T03:53:50.219Z,5.72
2022-12-18T03:54:56.497Z,5.10
2022-12-18T03:56:02.930Z,4.57
2022-12-18T03:57:10.785Z,6.60
2022-12-18T03:58:18.389Z,5.20
2022-12-18T03:59:23.353Z,4.13
2022-12-18T04:00:26.782Z,5.28
2022-12-18T04:01:33.831Z,4.15
2022-12-18T04:02:41.131Z,4.53
2022-12-18T04:03:45.991Z,4.55
2022-12-18T04:04:53.427Z,3.83
2022-12-18T04:05:57.083Z,4.97
2022-12-18T04:07:01.611Z,5.57
2022-12-18T04:08:04.639Z,4.63
2022-12-18T04:09:08.484Z,6.35
2022-12-18T04:10:13.028Z,5.10
2022-12-18T04:11:17.950Z,8.20
2022-12-18T04:12:20.197Z,5.95
2022-12-18T04:13:29.568Z,4.97
2022-12-18T04:14:36.772Z,5.65
2022-12-18T04:15:41.666Z,8.30
2022-12-18T04:16:44.152Z,5.77
2022-12-18T04:17:50.976Z,6.57
2022-12-18T04:18:53.586Z,7.13
2022-12-18T04:19:56.963Z,6.90
2022-12-18T04:20:59.593Z,7.35
2022-12-18T04:22:03.138Z,5.82
2022-12-18T04:23:05.704Z,6.57
2022-12-18T04:24:09.438Z,6.18
2022-12-18T04:25:11.909Z,7.78
2022-12-18T04:26:15.288Z,7.32
2022-12-18T04:27:17.638Z,7.47
2022-12-18T04:28:21.127Z,8.80
2022-12-18T04:29:24.025Z,5.35
2022-12-18T04:30:29.162Z,6.68
2022-12-18T04:31:31.541Z,6.88
2022-12-18T04:32:35.864Z,6.10
2022-12-18T04:33:38.413Z,5.65
2022-12-18T04:34:41.887Z,5.07
2022-12-18T04:35:44.353Z,6.45
2022-12-18T04:36:47.905Z,6.78
2022-12-18T04:37:50.271Z,7.70
2022-12-18T04:38:53.875Z,5.30
2022-12-18T04:39:56.556Z,5.93
2022-12-18T04:41:00.159Z,6.57
2022-12-18T04:42:02.319Z,5.65
2022-12-18T04:43:06.557Z,5.05
2022-12-18T04:44:09.228Z,6.07
2022-12-18T04:45:12.743Z,5.93
2022-12-18T04:46:16.313Z,5.25
2022-12-18T04:47:20.197Z,5.40
2022-12-18T04:48:22.509Z,5.07
2022-12-18T04:49:25.967Z,5.55
2022-12-18T04:50:28.815Z,5.88
2022-12-18T04:51:32.198Z,6.65
2022-12-18T04:52:34.477Z,12.07
2022-12-18T04:53:38.165Z,11.38
2022-12-18T04:54:40.984Z,11.15
2022-12-18T04:55:44.413Z,13.30
2022-12-18T04:56:46.879Z,16.38
2022-12-18T04:57:50.258Z,16.98
2022-12-18T04:58:52.607Z,14.50
2022-12-18T04:59:55.956Z,13.32
2022-12-18T05:00:58.444Z,15.57
2022-12-18T05:02:03.529Z,11.57
2022-12-18T05:03:05.990Z,10.70
2022-12-18T05:04:09.495Z,12.80
2022-12-18T05:05:11.932Z,7.40
2022-12-18T05:06:15.307Z,7.45
2022-12-18T05:07:17.652Z,7.97
2022-12-18T05:08:21.451Z,6.80
2022-12-18T05:09:25.000Z,7.70
2022-12-18T05:10:29.628Z,6.32
2022-12-18T05:11:34.535Z,5.07
2022-12-18T05:12:59.346Z,5.82
2022-12-18T05:14:03.594Z,4.85
2022-12-18T05:15:08.019Z,4.35
2022-12-18T05:16:10.671Z,5.80
2022-12-18T05:17:15.519Z,4.10
2022-12-18T05:18:17.886Z,4.60
2022-12-18T05:19:21.287Z,4.45
2022-12-18T05:20:23.811Z,4.90
2022-12-18T05:21:27.169Z,5.38
2022-12-18T05:22:29.429Z,5.03
2022-12-18T05:23:32.679Z,4.68
2022-12-18T05:24:34.968Z,5.07
2022-12-18T05:25:38.319Z,5.70
2022-12-18T05:26:40.997Z,5.97
2022-12-18T05:27:44.978Z,5.72
2022-12-18T05:28:47.391Z,5.72
2022-12-18T05:29:50.860Z,5.47
2022-12-18T05:30:54.567Z,5.83
2022-12-18T05:31:58.106Z,6.28
2022-12-18T05:33:01.839Z,5.80
2022-12-18T05:34:05.117Z,5.65
2022-12-18T05:35:09.618Z,6.35
2022-12-18T05:36:13.294Z,6.63
2022-12-18T05:37:15.709Z,7.20
2022-12-18T05:38:19.165Z,6.78
2022-12-18T05:39:21.512Z,7.07
2022-12-18T05:40:24.763Z,6.00
2022-12-18T05:41:27.065Z,6.73
2022-12-18T05:42:30.368Z,7.07
2022-12-18T05:43:35.186Z,6.78
2022-12-18T05:44:38.391Z,7.50
2022-12-18T05:45:41.882Z,7.53
2022-12-18T05:46:45.283Z,5.97
2022-12-18T05:47:47.572Z,9.95
2022-12-18T05:48:52.683Z,8.57
2022-12-18T05:49:55.625Z,5.20
2022-12-18T05:51:06.793Z,7.72
2022-12-18T05:52:09.238Z,6.13
2022-12-18T05:53:12.471Z,7.93
2022-12-18T05:54:15.089Z,8.00
2022-12-18T05:55:18.429Z,7.60
2022-12-18T05:56:23.094Z,8.95
2022-12-18T05:57:26.426Z,7.78
2022-12-18T05:58:29.189Z,5.95
2022-12-18T05:59:32.571Z,7.05
2022-12-18T06:00:37.147Z,5.88
2022-12-18T06:01:40.594Z,6.35
2022-12-18T06:02:42.901Z,6.17
2022-12-18T06:03:46.764Z,7.90
2022-12-18T06:04:50.916Z,6.05
2022-12-18T06:05:54.158Z,5.65
2022-12-18T06:06:56.390Z,6.70
2022-12-18T06:08:00.298Z,7.22
2022-12-18T06:09:02.864Z,5.07
2022-12-18T06:10:07.529Z,6.40
2022-12-18T06:11:09.754Z,6.03
2022-12-18T06:12:13.412Z,5.20
2022-12-18T06:13:15.901Z,4.90
2022-12-18T06:14:19.294Z,4.65
2022-12-18T06:15:21.606Z,7.07
2022-12-18T06:16:25.466Z,4.45
2022-12-18T06:17:30.204Z,5.18
2022-12-18T06:18:33.628Z,6.97
2022-12-18T06:19:36.131Z,8.15
2022-12-18T06:20:42.446Z,7.05
2022-12-18T06:21:44.992Z,6.35
2022-12-18T06:22:48.332Z,5.28
2022-12-18T06:23:51.140Z,6.33
2022-12-18T06:24:54.444Z,5.55
2022-12-18T06:25:57.554Z,7.60
2022-12-18T06:27:01.015Z,5.85
2022-12-18T06:28:03.464Z,5.72
2022-12-18T06:29:07.034Z,4.82
2022-12-18T06:30:11.726Z,4.20
2022-12-18T06:31:15.160Z,6.65
2022-12-18T06:32:17.827Z,5.53
2022-12-18T06:33:21.066Z,5.22
2022-12-18T06:34:23.655Z,5.67
2022-12-18T06:35:27.062Z,5.30
2022-12-18T06:36:30.667Z,6.70
2022-12-18T06:37:34.191Z,5.47
2022-12-18T06:38:38.776Z,8.02
2022-12-18T06:39:42.270Z,8.40
2022-12-18T06:40:44.415Z,4.93
2022-12-18T06:41:48.176Z,5.57
2022-12-18T06:42:50.506Z,5.78
2022-12-18T06:43:59.327Z,4.32
2022-12-18T06:45:02.113Z,4.77
2022-12-18T06:46:07.459Z,4.70
2022-12-18T06:47:10.165Z,4.70
2022-12-18T06:48:13.520Z,5.97
2022-12-18T06:49:17.056Z,5.10
2022-12-18T06:50:20.419Z,4.53
2022-12-18T06:51:24.747Z,4.72
2022-12-18T06:52:29.537Z,5.05
2022-12-18T06:53:33.256Z,7.10
2022-12-18T06:54:36.796Z,4.95
2022-12-18T06:55:39.071Z,5.93
2022-12-18T06:56:42.716Z,6.93
2022-12-18T06:57:45.049Z,4.43
2022-12-18T06:58:48.338Z,4.03
2022-12-18T06:59:51.053Z,7.78
2022-12-18T07:00:54.469Z,8.05
2022-12-18T07:01:57.875Z,6.28
2022-12-18T07:03:01.393Z,7.75
2022-12-18T07:04:03.716Z,9.20
2022-12-18T07:05:10.963Z,7.13
2022-12-18T07:06:16.485Z,3.80
2022-12-18T07:07:20.393Z,4.90
2022-12-18T07:08:24.278Z,5.90
2022-12-18T07:09:29.984Z,4.78
2022-12-18T07:10:32.237Z,4.15
2022-12-18T07:11:36.095Z,4.65
2022-12-18T07:12:38.485Z,4.68
2022-12-18T07:13:42.033Z,4.35
2022-12-18T07:14:44.702Z,5.18
2022-12-18T07:15:48.086Z,4.97
2022-12-18T07:16:51.567Z,3.77
2022-12-18T07:17:54.401Z,6.53
2022-12-18T07:18:58.375Z,4.13
2022-12-18T07:20:00.611Z,3.28
2022-12-18T07:21:07.523Z,3.58
2022-12-18T07:22:09.752Z,4.60
2022-12-18T07:23:13.061Z,3.85
2022-12-18T07:24:16.864Z,3.35
2022-12-18T07:25:20.460Z,4.40
2022-12-18T07:26:23.463Z,3.95
2022-12-18T07:27:27.227Z,6.00
2022-12-18T07:28:30.490Z,3.17
2022-12-18T07:29:33.988Z,4.75
2022-12-18T07:30:39.593Z,3.10
2022-12-18T07:31:41.949Z,3.72
2022-12-18T07:32:45.277Z,3.75
2022-12-18T07:33:48.096Z,2.97
2022-12-18T07:34:51.440Z,4.55
2022-12-18T07:35:53.862Z,3.30
2022-12-18T07:36:57.175Z,4.35
2022-12-18T07:37:59.304Z,2.53
2022-12-18T07:39:02.717Z,3.67
2022-12-18T07:40:07.965Z,4.03
2022-12-18T07:41:13.986Z,3.05
2022-12-18T07:42:34.421Z,3.50
2022-12-18T07:43:38.612Z,3.50
2022-12-18T07:44:42.235Z,3.15
2022-12-18T07:45:45.077Z,3.58
2022-12-18T07:46:48.290Z,3.38
2022-12-18T07:47:51.119Z,3.20
2022-12-18T07:48:54.562Z,6.90
2022-12-18T07:49:56.961Z,4.70
2022-12-18T07:51:01.232Z,2.95
2022-12-18T07:52:03.615Z,4.03
2022-12-18T07:53:07.163Z,3.42
2022-12-18T07:54:09.523Z,3.28
2022-12-18T07:55:14.555Z,3.83
2022-12-18T07:56:32.395Z,5.00
2022-12-18T07:57:50.401Z,4.95
2022-12-18T07:58:54.809Z,3.42
2022-12-18T07:59:58.172Z,3.50
2022-12-18T08:01:04.707Z,4.40
2022-12-18T08:02:09.980Z,3.78
2022-12-18T08:03:13.777Z,5.18
2022-12-18T08:04:17.216Z,4.10
2022-12-18T08:05:19.435Z,5.45
2022-12-18T08:06:24.081Z,5.22
2022-12-18T08:07:26.977Z,4.30
2022-12-18T08:08:30.541Z,4.35
2022-12-18T08:09:32.914Z,5.05
2022-12-18T08:10:37.641Z,4.47
2022-12-18T08:11:41.307Z,5.70
2022-12-18T08:12:43.593Z,5.78
2022-12-18T08:13:46.876Z,5.28
2022-12-18T08:14:49.096Z,5.43
2022-12-18T08:15:59.172Z,3.63
2022-12-18T08:17:02.645Z,4.65
2022-12-18T08:18:06.523Z,5.15
2022-12-18T08:19:12.812Z,5.95
2022-12-18T08:20:16.069Z,4.13
2022-12-18T08:21:22.362Z,6.33
2022-12-18T08:22:26.552Z,3.60
2022-12-18T08:23:29.018Z,3.72
2022-12-18T08:24:32.358Z,7.22
2022-12-18T08:25:36.972Z,6.45
2022-12-18T08:26:40.224Z,7.57
2022-12-18T08:28:41.552Z,8.10
2022-12-18T08:29:44.917Z,5.55
2022-12-18T08:30:47.171Z,6.18
2022-12-18T08:31:50.572Z,6.57
2022-12-18T08:32:54.107Z,8.47
2022-12-18T08:33:57.720Z,7.75
2022-12-18T08:35:00.157Z,7.55
2022-12-18T08:36:04.933Z,7.60
2022-12-18T08:37:08.522Z,9.38
2022-12-18T08:38:10.981Z,4.90
2022-12-18T08:39:14.879Z,6.35
2022-12-18T08:40:17.457Z,6.05
2022-12-18T08:41:22.839Z,7.82
2022-12-18T08:42:43.840Z,7.18
2022-12-18T08:44:05.115Z,6.40
2022-12-18T08:45:09.713Z,8.07
2022-12-18T08:46:12.382Z,5.30
2022-12-18T08:47:15.840Z,4.95
2022-12-18T08:48:22.205Z,4.95
2022-12-18T08:49:25.756Z,5.13
2022-12-18T08:50:28.067Z,9.68
2022-12-18T08:51:31.644Z,10.70
2022-12-18T08:52:35.294Z,8.05
2022-12-18T08:53:37.852Z,7.68
2022-12-18T08:54:41.511Z,8.07
2022-12-18T08:55:49.957Z,6.43
2022-12-18T08:56:55.083Z,9.15
2022-12-18T08:57:57.232Z,10.00
2022-12-18T08:59:00.716Z,6.40
2022-12-18T09:00:04.721Z,10.77
2022-12-18T09:01:10.443Z,7.40
2022-12-18T09:02:14.133Z,4.57
2022-12-18T09:03:18.347Z,6.82
2022-12-18T09:04:21.943Z,4.22
2022-12-18T09:05:25.770Z,5.37
2022-12-18T09:06:28.041Z,5.55
2022-12-18T09:07:31.405Z,6.22
2022-12-18T09:08:33.603Z,5.07
2022-12-18T09:09:38.421Z,7.88
2022-12-18T09:10:43.681Z,6.15
2022-12-18T09:11:47.306Z,7.95
2022-12-18T09:12:51.298Z,5.53
2022-12-18T09:13:56.139Z,6.57
2022-12-18T09:14:58.595Z,6.78
2022-12-18T09:16:01.939Z,4.73
2022-12-18T09:17:04.426Z,6.43
2022-12-18T09:18:08.320Z,5.50
2022-12-18T09:19:12.390Z,6.13
2022-12-18T09:20:15.943Z,5.60
2022-12-18T09:21:21.430Z,6.03
2022-12-18T09:22:24.862Z,9.25
2022-12-18T09:23:27.085Z,5.90
2022-12-18T09:24:30.253Z,8.10
2022-12-18T09:25:34.261Z,5.68
2022-12-18T09:26:37.745Z,7.37
2022-12-18T09:27:42.130Z,7.93
2022-12-18T09:28:46.029Z,5.88
2022-12-18T09:29:49.313Z,6.85
2022-12-18T09:30:51.578Z,6.13
2022-12-18T09:31:54.991Z,6.85
2022-12-18T09:32:57.452Z,8.05
2022-12-18T09:34:00.817Z,6.47
2022-12-18T09:35:04.254Z,7.03
2022-12-18T09:36:09.271Z,5.20
2022-12-18T09:37:12.737Z,6.40
2022-12-18T09:38:16.718Z,6.07
2022-12-18T09:39:23.449Z,7.25
2022-12-18T09:40:30.370Z,5.15
2022-12-18T09:41:45.095Z,5.60
2022-12-18T09:42:53.224Z,6.93
2022-12-18T09:44:02.006Z,10.25
2022-12-18T09:45:06.506Z,7.38
2022-12-18T09:46:13.538Z,6.35
2022-12-18T09:47:21.933Z,5.65
2022-12-18T09:48:29.505Z,7.03
2022-12-18T09:49:37.262Z,5.55
2022-12-18T09:50:42.838Z,7.80
2022-12-18T09:51:49.429Z,7.97
2022-12-18T09:52:58.948Z,5.38
2022-12-18T09:54:05.974Z,7.03
2022-12-18T09:55:26.656Z,6.35
2022-12-18T09:56:33.137Z,7.05
2022-12-18T09:57:41.720Z,5.32
2022-12-18T09:58:51.431Z,5.82
2022-12-18T10:00:00.010Z,5.83
2022-12-18T10:01:03.755Z,5.20
2022-12-18T10:02:22.479Z,5.57
2022-12-18T10:03:26.000Z,5.38
2022-12-18T10:04:31.346Z,6.38
2022-12-18T10:05:42.505Z,5.13
2022-12-18T10:06:50.971Z,5.55
2022-12-18T10:08:04.679Z,6.15
2022-12-18T10:09:15.089Z,6.03
2022-12-18T10:10:28.204Z,5.22
2022-12-18T10:11:42.190Z,4.97
2022-12-18T10:13:00.934Z,7.07
2022-12-18T10:14:17.786Z,6.45
2022-12-18T10:15:32.720Z,5.93
2022-12-18T10:16:43.870Z,5.88
2022-12-18T10:17:54.082Z,6.60
2022-12-18T10:19:20.559Z,6.68
2022-12-18T10:20:31.008Z,6.70
2022-12-18T10:21:41.648Z,5.80
2022-12-18T10:22:55.477Z,5.00
2022-12-18T10:24:07.075Z,5.57
2022-12-18T10:25:21.599Z,5.10
2022-12-18T10:26:25.023Z,6.75
2022-12-18T10:27:29.355Z,6.57
2022-12-18T10:28:34.959Z,5.80
2022-12-18T10:29:37.557Z,6.93
2022-12-18T10:30:43.681Z,6.20
2022-12-18T10:31:46.040Z,7.43
2022-12-18T10:32:49.335Z,7.22
2022-12-18T10:33:51.666Z,6.45
2022-12-18T10:35:00.507Z,5.87
2022-12-18T10:36:04.509Z,6.65
2022-12-18T10:37:14.024Z,5.80
2022-12-18T10:38:26.174Z,5.07
2022-12-18T10:39:28.331Z,7.70
2022-12-18T10:40:32.665Z,5.75
2022-12-18T10:41:34.947Z,5.88
2022-12-18T10:42:38.437Z,5.20
2022-12-18T10:43:42.826Z,6.88
2022-12-18T10:44:45.343Z,5.63
2022-12-18T10:46:02.868Z,5.37
2022-12-18T10:47:12.900Z,5.35
2022-12-18T10:48:23.450Z,6.05
2022-12-18T10:49:29.690Z,8.48
2022-12-18T10:51:09.308Z,5.53
2022-12-18T10:52:16.655Z,5.93
2022-12-18T10:53:22.877Z,5.35
2022-12-18T10:54:27.543Z,7.40
2022-12-18T10:55:35.091Z,6.60
2022-12-18T10:56:40.285Z,7.50
2022-12-18T10:57:44.598Z,7.13
2022-12-18T10:58:58.620Z,6.43
2022-12-18T11:00:22.526Z,7.55
2022-12-18T11:01:28.064Z,8.45
2022-12-18T11:02:38.099Z,10.13
2022-12-18T11:03:43.815Z,6.40
2022-12-18T11:04:53.301Z,7.35
2022-12-18T11:06:05.446Z,6.72
2022-12-18T11:07:11.905Z,7.45
2022-12-18T11:08:23.791Z,7.53
2022-12-18T11:09:28.922Z,8.13
2022-12-18T11:10:33.906Z,8.88
2022-12-18T11:11:37.335Z,7.40
2022-12-18T11:12:39.543Z,7.20
2022-12-18T11:13:43.344Z,8.10
2022-12-18T11:14:49.190Z,7.55
2022-12-18T11:15:53.208Z,6.65
2022-12-18T11:18:29.165Z,8.55
2022-12-18T11:19:36.414Z,7.93
2022-12-18T11:20:41.603Z,7.37
2022-12-18T11:21:44.230Z,8.27
2022-12-18T11:22:58.227Z,8.30
2022-12-18T11:24:01.455Z,8.43
2022-12-18T11:25:32.572Z,6.00
2022-12-18T11:26:37.349Z,7.07
2022-12-18T11:27:40.592Z,6.43
2022-12-18T11:28:48.874Z,7.72
2022-12-18T11:29:53.269Z,8.02
2022-12-18T11:31:17.987Z,8.15
2022-12-18T11:32:36.413Z,8.23
2022-12-18T11:33:58.362Z,6.47
2022-12-18T11:35:19.492Z,7.03
2022-12-18T11:36:24.888Z,7.78
2022-12-18T11:37:30.039Z,8.45
2022-12-18T11:38:37.568Z,7.47
2022-12-18T11:39:44.005Z,11.80
2022-12-18T11:40:54.180Z,8.45
2022-12-18T11:42:10.393Z,8.40
2022-12-18T11:43:19.432Z,7.15
2022-12-18T11:44:27.689Z,9.83
2022-12-18T11:45:33.382Z,7.68
2022-12-18T11:46:39.642Z,8.30
2022-12-18T11:47:52.108Z,8.10
2022-12-18T11:49:02.454Z,9.02
2022-12-18T11:50:16.522Z,7.35
2022-12-18T11:51:30.488Z,6.85
2022-12-18T11:52:40.067Z,6.40
2022-12-18T11:53:43.509Z,8.55
2022-12-18T11:54:45.787Z,7.32
2022-12-18T11:56:07.219Z,6.50
2022-12-18T11:57:19.840Z,9.27
2022-12-18T11:58:35.530Z,9.73
2022-12-18T11:59:49.640Z,8.40
2022-12-18T12:01:05.679Z,9.57
2022-12-18T12:02:33.330Z,10.93
2022-12-18T12:04:00.290Z,11.38
2022-12-18T12:05:18.609Z,9.80
2022-12-18T12:06:29.408Z,9.02
2022-12-18T12:07:44.261Z,10.50
2022-12-18T12:09:03.844Z,9.13
2022-12-18T12:10:20.942Z,10.23
2022-12-18T12:11:35.735Z,8.98
2022-12-18T12:12:54.831Z,12.88
2022-12-18T12:14:11.415Z,11.18
2022-12-18T12:15:25.385Z,10.10
2022-12-18T12:16:35.793Z,10.00
2022-12-18T12:17:44.062Z,11.65
2022-12-18T12:19:09.190Z,9.50
2022-12-18T12:20:22.646Z,9.88
2022-12-18T12:21:37.044Z,9.77
2022-12-18T12:22:51.967Z,11.13
2022-12-18T12:24:01.748Z,11.32
2022-12-18T12:25:22.568Z,9.77
2022-12-18T12:26:33.961Z,11.18
2022-12-18T12:27:46.824Z,12.10
2022-12-18T12:29:10.657Z,9.82
2022-12-18T12:30:20.266Z,11.63
2022-12-18T12:31:36.161Z,10.95
2022-12-18T12:33:01.925Z,9.48
2022-12-18T12:34:18.997Z,8.10
2022-12-18T12:35:34.658Z,11.55
2022-12-18T12:37:04.013Z,10.38
2022-12-18T12:38:12.418Z,10.60
2022-12-18T12:39:20.291Z,12.93
2022-12-18T12:42:18.799Z,9.52
2022-12-18T12:43:33.521Z,10.40
2022-12-18T12:44:43.068Z,9.57
2022-12-18T12:45:51.661Z,11.32
2022-12-18T12:46:58.684Z,12.20
2022-12-18T12:48:03.706Z,10.02
2022-12-18T12:49:15.725Z,9.75
2022-12-18T12:50:21.528Z,12.27
2022-12-18T12:51:29.453Z,11.23
2022-12-18T12:52:37.135Z,11.82
2022-12-18T12:53:42.746Z,9.23
2022-12-18T12:54:47.496Z,9.55
2022-12-18T12:55:50.239Z,11.13
2022-12-18T12:57:00.128Z,10.55
2022-12-18T12:58:11.695Z,10.93
2022-12-18T12:59:22.163Z,11.20
2022-12-18T13:00:26.802Z,11.32
2022-12-18T13:01:38.380Z,10.45
2022-12-18T13:02:49.695Z,10.85
2022-12-18T13:04:02.545Z,11.73
2022-12-18T13:05:19.096Z,11.05
2022-12-18T13:06:36.927Z,10.68
2022-12-18T13:07:47.677Z,9.70
2022-12-18T13:08:57.765Z,10.63
2022-12-18T13:10:17.884Z,10.77
2022-12-18T13:11:54.929Z,12.48
2022-12-18T13:13:04.210Z,10.50
2022-12-18T13:14:25.199Z,12.23
2022-12-18T13:15:35.867Z,19.35
2022-12-18T13:16:41.481Z,12.23
2022-12-18T13:17:45.294Z,19.58
2022-12-18T13:18:52.933Z,11.45
2022-12-18T13:20:11.735Z,13.00
2022-12-18T13:21:24.604Z,9.40
2022-12-18T13:22:34.901Z,9.73
2022-12-18T13:23:39.593Z,11.07
2022-12-18T13:24:42.052Z,10.38
2022-12-18T13:25:45.696Z,11.13
2022-12-18T13:26:47.948Z,9.45
2022-12-18T13:28:02.918Z,6.15
2022-12-18T13:29:07.315Z,8.45
2022-12-18T13:30:46.400Z,9.18
2022-12-18T13:32:22.900Z,8.00
2022-12-18T13:35:41.669Z,6.97
2022-12-18T13:36:45.532Z,6.28
2022-12-18T13:37:54.091Z,6.25
2022-12-18T13:39:32.788Z,6.13
2022-12-18T13:40:57.465Z,4.93
2022-12-18T13:42:57.923Z,7.05
2022-12-18T13:44:14.497Z,6.07
2022-12-18T13:45:47.559Z,8.32
2022-12-18T13:46:53.417Z,6.38
2022-12-18T13:47:55.976Z,7.32
2022-12-18T13:49:03.640Z,7.80
2022-12-18T13:50:22.199Z,5.75
2022-12-18T13:51:28.428Z,8.05
2022-12-18T13:52:38.501Z,10.50
2022-12-18T13:53:46.798Z,10.65
2022-12-18T13:54:53.795Z,7.57
2022-12-18T13:55:56.775Z,7.45
2022-12-18T13:57:00.035Z,7.55
2022-12-18T13:58:05.911Z,8.77
2022-12-18T13:59:22.981Z,8.65
2022-12-18T14:00:29.778Z,9.83
2022-12-18T14:01:33.175Z,9.07
2022-12-18T14:02:36.950Z,10.23
2022-12-18T14:03:40.698Z,9.85
2022-12-18T14:04:48.888Z,8.30
2022-12-18T14:06:00.685Z,9.38
2022-12-18T14:07:08.090Z,8.35
2022-12-18T14:08:14.071Z,10.50
2022-12-18T14:09:21.469Z,8.60
2022-12-18T14:10:47.794Z,8.15
2022-12-18T14:11:50.580Z,9.00
2022-12-18T14:12:57.929Z,11.18
2022-12-18T14:14:08.338Z,7.70
2022-12-18T14:15:23.357Z,8.55
2022-12-18T14:16:27.366Z,11.85
2022-12-18T14:17:30.705Z,11.00
2022-12-18T14:18:41.435Z,10.77
2022-12-18T14:19:46.020Z,12.35
2022-12-18T14:20:52.831Z,10.57
2022-12-18T14:21:55.682Z,13.25
2022-12-18T14:23:01.244Z,11.57
2022-12-18T14:24:15.823Z,8.75
2022-12-18T14:25:25.430Z,8.95
2022-12-18T14:26:30.953Z,11.95
2022-12-18T14:27:33.341Z,10.95
2022-12-18T14:28:46.197Z,11.23
2022-12-18T14:29:49.381Z,13.82
2022-12-18T14:30:52.131Z,12.20
2022-12-18T14:32:17.573Z,14.40
2022-12-18T14:33:23.353Z,14.70
2022-12-18T14:34:28.971Z,14.53
2022-12-18T14:35:31.270Z,12.55
2022-12-18T14:36:34.562Z,13.32
2022-12-18T14:37:37.893Z,14.20
2022-12-18T14:38:42.905Z,15.32
2022-12-18T14:39:57.773Z,16.52
2022-12-18T14:41:02.789Z,15.68
2022-12-18T14:42:06.536Z,14.05
2022-12-18T14:43:10.838Z,14.50
2022-12-18T14:44:15.779Z,14.80
2022-12-18T14:45:42.154Z,12.93
2022-12-18T14:46:48.402Z,12.25